Time;durP1;ratioP1;P1;durP2;ratioP2;P2;SDS_P1;SDS_P2;PMS_P1;PMS_P2;Temp;Humidity;BMP_temperature;BMP_pressure;BME280_temperature;BME280_humidity;BME280_pressure;Samples;Min_cycle;Max_cycle;Signal;HPM_P1;HPM_P2
2022/12/04 00:01:14;;;;;;;34.05;14.68;;;;;;;2.99;80.19;99796.25;4961280;28;20490;-87
2022/12/04 00:03:41;;;;;;;36.80;15.60;;;;;;;3.07;80.17;99791.41;4963924;28;20491;-87
2022/12/04 00:06:14;;;;;;;31.10;14.13;;;;;;;3.15;80.06;99789.16;4957534;28;20038;-87
2022/12/04 00:08:42;;;;;;;30.80;13.00;;;;;;;3.24;80.36;99790.44;4964743;28;20042;-87
2022/12/04 00:11:10;;;;;;;27.40;12.65;;;;;;;3.26;80.13;99781.53;4972253;28;20046;-87
2022/12/04 00:13:37;;;;;;;29.30;13.57;;;;;;;3.32;80.06;99788.19;4965742;28;20042;-88
2022/12/04 00:16:06;;;;;;;31.73;14.45;;;;;;;3.33;80.25;99784.63;4971103;28;20478;-88
2022/12/04 00:18:33;;;;;;;30.38;13.80;;;;;;;3.40;79.94;99787.72;4969952;28;20137;-87
2022/12/04 00:21:07;;;;;;;30.27;14.02;;;;;;;3.40;79.63;99787.72;4951987;28;20051;-88
2022/12/04 00:23:35;;;;;;;29.85;13.68;;;;;;;3.39;79.36;99796.56;4950625;28;20564;-87
2022/12/04 00:26:08;;;;;;;32.92;15.18;;;;;;;3.28;79.15;99802.41;4960099;28;20481;-88
2022/12/04 00:28:35;;;;;;;30.98;14.57;;;;;;;3.29;79.17;99798.03;4951372;28;20055;-88
2022/12/04 00:31:24;;;;;;;27.58;12.93;;;;;;;3.23;78.61;99797.47;4942055;28;20046;-87
2022/12/04 00:33:51;;;;;;;29.90;13.95;;;;;;;3.35;79.16;99801.13;4939822;28;20039;-87
2022/12/04 00:36:20;;;;;;;29.77;12.63;;;;;;;3.38;79.12;99782.56;4974493;28;20802;-87
2022/12/04 00:38:47;;;;;;;28.38;13.18;;;;;;;3.37;79.14;99785.31;4983729;28;20155;-87
2022/12/04 00:41:16;;;;;;;27.35;12.40;;;;;;;3.43;79.00;99787.53;4964712;28;20149;-87
2022/12/04 00:43:44;;;;;;;30.95;14.10;;;;;;;3.40;78.89;99785.09;4958895;28;20551;-88
2022/12/04 00:46:11;;;;;;;28.10;13.13;;;;;;;3.42;78.47;99776.22;4954067;28;20048;-87
2022/12/04 00:48:38;;;;;;;28.85;13.75;;;;;;;3.34;78.43;99775.00;4951202;28;20047;-88
2022/12/04 00:51:08;;;;;;;31.02;13.65;;;;;;;3.28;78.51;99764.84;4958332;28;20503;-88
2022/12/04 00:53:35;;;;;;;28.75;12.85;;;;;;;3.28;78.97;99756.97;4954890;28;20060;-87
2022/12/04 00:56:03;;;;;;;28.77;13.23;;;;;;;3.24;78.26;99753.69;4948674;28;20043;-88
2022/12/04 00:58:30;;;;;;;27.48;12.73;;;;;;;3.28;78.44;99756.97;4969101;28;20042;-88
2022/12/04 01:01:09;;;;;;;29.90;13.43;;;;;;;3.32;78.16;99753.22;4961097;28;20050;-88
2022/12/04 01:03:36;;;;;;;32.28;14.40;;;;;;;3.27;78.50;99745.63;4933798;28;20133;-87
2022/12/04 01:06:03;;;;;;;31.83;13.07;;;;;;;3.25;78.00;99748.34;4939458;28;20054;-88
2022/12/04 01:08:30;;;;;;;29.75;13.38;;;;;;;3.21;78.91;99759.13;4972085;28;20053;-88
2022/12/04 01:10:57;;;;;;;30.08;12.63;;;;;;;3.21;78.94;99749.47;4969956;28;20121;-88
2022/12/04 01:13:24;;;;;;;32.15;13.02;;;;;;;3.26;78.30;99749.19;4970874;28;20185;-89
2022/12/04 01:15:51;;;;;;;26.65;12.00;;;;;;;3.24;78.52;99749.28;4961232;28;20046;-88
2022/12/04 01:18:18;;;;;;;26.75;12.43;;;;;;;3.20;78.71;99741.69;4971271;28;20096;-88
2022/12/04 01:20:49;;;;;;;27.83;12.90;;;;;;;3.24;78.64;99759.78;4954000;28;20085;-88
2022/12/04 01:23:17;;;;;;;25.05;11.52;;;;;;;3.24;78.80;99759.78;4944433;28;20042;-88
2022/12/04 01:25:55;;;;;;;29.50;13.32;;;;;;;3.19;78.74;99758.38;4966177;28;20712;-87
2022/12/04 01:28:23;;;;;;;31.90;13.70;;;;;;;3.26;78.93;99755.28;4984704;28;20050;-88
2022/12/04 01:31:00;;;;;;;28.48;12.82;;;;;;;3.26;78.88;99762.31;4970594;28;20049;-87
2022/12/04 01:33:27;;;;;;;27.45;12.73;;;;;;;3.34;78.85;99760.09;4950091;28;20043;-87
2022/12/04 01:35:56;;;;;;;29.20;12.10;;;;;;;3.34;78.64;99752.22;4985287;28;20049;-88
2022/12/04 01:38:23;;;;;;;28.20;12.02;;;;;;;3.35;78.88;99758.28;4974155;28;20141;-86
2022/12/04 01:40:51;;;;;;;25.70;13.23;;;;;;;3.38;78.97;99758.94;4953262;28;20051;-88
2022/12/04 01:43:18;;;;;;;26.33;12.05;;;;;;;3.36;78.76;99759.97;4966555;28;20043;-87
2022/12/04 01:45:48;;;;;;;29.38;12.50;;;;;;;3.33;79.33;99753.13;4961466;28;20698;-88
2022/12/04 01:48:22;;;;;;;29.25;13.77;;;;;;;3.37;79.22;99744.16;4985785;28;20046;-88
2022/12/04 01:50:52;;;;;;;27.67;12.65;;;;;;;3.42;79.31;99730.75;4981248;28;20060;-88
2022/12/04 01:53:19;;;;;;;26.00;12.00;;;;;;;3.41;78.96;99735.16;4983052;28;20058;-88
2022/12/04 01:55:47;;;;;;;30.70;12.77;;;;;;;3.35;79.26;99738.13;4981598;28;20108;-88
2022/12/04 01:58:16;;;;;;;30.95;13.15;;;;;;;3.40;79.31;99743.94;4957386;28;20046;-88
2022/12/04 02:00:43;;;;;;;29.35;13.15;;;;;;;3.39;79.08;99734.41;4954457;28;20081;-88
2022/12/04 02:03:16;;;;;;;29.77;12.48;;;;;;;3.44;79.30;99732.34;4956066;28;20124;-87
2022/12/04 02:05:43;;;;;;;28.67;12.13;;;;;;;3.46;79.63;99738.34;4938871;28;20046;-87
2022/12/04 02:08:10;;;;;;;27.55;12.60;;;;;;;3.48;79.54;99736.44;4958981;28;20056;-88
2022/12/04 02:10:58;;;;;;;30.50;12.77;;;;;;;3.44;79.30;99739.38;4970369;28;20058;-87
2022/12/04 02:13:41;;;;;;;29.30;13.05;;;;;;;3.40;78.83;99732.63;4959914;28;20047;-88
2022/12/04 02:16:19;;;;;;;24.92;12.18;;;;;;;3.48;79.39;99741.69;4948966;28;20046;-87
2022/12/04 02:18:53;;;;;;;27.05;12.05;;;;;;;3.51;79.07;99735.44;4955619;28;20054;-88
2022/12/04 02:21:32;;;;;;;30.95;13.43;;;;;;;3.50;78.99;99738.16;4955244;28;20049;-87
2022/12/04 02:24:10;;;;;;;27.08;12.20;;;;;;;3.42;78.96;99741.25;4929649;28;20469;-88
2022/12/04 02:26:52;;;;;;;29.55;12.35;;;;;;;3.44;78.95;99734.97;4998153;28;20174;-88
2022/12/04 02:29:40;;;;;;;29.90;13.65;;;;;;;3.48;79.31;99741.69;4935124;28;20050;-87
2022/12/04 02:32:13;;;;;;;28.80;12.60;;;;;;;3.54;79.27;99740.50;4923302;28;20062;-88
2022/12/04 02:34:53;;;;;;;27.58;12.48;;;;;;;3.53;79.68;99744.06;4905541;28;20070;-88
2022/12/04 02:37:43;;;;;;;28.25;11.95;;;;;;;3.46;79.48;99737.47;4930131;28;20122;-88
2022/12/04 02:40:24;;;;;;;28.20;12.15;;;;;;;3.55;79.45;99747.44;4899752;29;20048;-88
2022/12/04 02:42:56;;;;;;;28.05;12.82;;;;;;;3.62;79.00;99733.00;4881468;29;20079;-88
2022/12/04 02:45:26;;;;;;;25.27;11.88;;;;;;;3.60;79.18;99723.53;4912820;28;20575;-87
2022/12/04 02:47:54;;;;;;;28.70;11.88;;;;;;;3.63;78.67;99723.34;4884567;28;20550;-87
2022/12/04 02:50:21;;;;;;;28.63;12.18;;;;;;;3.53;79.36;99730.09;4874985;28;20503;-88
2022/12/04 02:52:58;;;;;;;28.55;12.68;;;;;;;3.50;79.60;99712.75;4901424;29;20048;-88
2022/12/04 02:55:29;;;;;;;26.05;11.32;;;;;;;3.51;78.92;99724.94;4909070;28;20048;-88
2022/12/04 02:58:00;;;;;;;28.50;12.73;;;;;;;3.41;79.82;99721.16;4895568;29;20563;-87
2022/12/04 03:00:29;;;;;;;29.63;12.43;;;;;;;3.47;79.35;99715.56;4931233;28;20070;-89
2022/12/04 03:03:01;;;;;;;22.88;10.80;;;;;;;3.50;79.23;99714.53;4894604;28;20051;-88
2022/12/04 03:05:35;;;;;;;26.73;11.73;;;;;;;3.44;79.65;99713.97;4924182;28;20126;-89
2022/12/04 03:08:10;;;;;;;26.27;11.15;;;;;;;3.47;78.86;99720.81;4929128;28;20442;-88
2022/12/04 03:10:43;;;;;;;24.50;10.13;;;;;;;3.50;78.99;99714.53;4941882;28;20053;-87
2022/12/04 03:13:17;;;;;;;22.42;9.60;;;;;;;3.49;79.21;99705.81;4977380;28;20493;-89
2022/12/04 03:15:59;;;;;;;24.65;10.52;;;;;;;3.47;79.07;99718.19;4967255;28;20093;-88
2022/12/04 03:18:31;;;;;;;25.80;10.60;;;;;;;3.52;78.99;99723.16;4913915;28;20675;-88
2022/12/04 03:21:04;;;;;;;25.25;11.50;;;;;;;3.50;79.16;99709.28;4985675;28;20046;-89
2022/12/04 03:23:38;;;;;;;22.50;9.82;;;;;;;3.47;79.32;99707.69;4946385;28;20049;-88
2022/12/04 03:26:11;;;;;;;26.80;11.05;;;;;;;3.50;79.21;99699.63;4930251;28;20057;-88
2022/12/04 03:28:58;;;;;;;28.50;10.82;;;;;;;3.50;79.27;99699.63;4969559;28;20047;-88
2022/12/04 03:31:37;;;;;;;25.60;10.60;;;;;;;3.43;79.55;99695.69;4922171;28;20410;-89
2022/12/04 03:34:06;;;;;;;25.50;10.30;;;;;;;3.51;79.23;99701.31;4978681;28;20582;-87
2022/12/04 03:36:36;;;;;;;27.48;11.70;;;;;;;3.46;79.49;99703.34;4975686;28;20381;-87
2022/12/04 03:39:23;;;;;;;25.33;10.93;;;;;;;3.51;79.70;99718.84;4959309;28;20136;-88
2022/12/04 03:41:54;;;;;;;23.52;11.10;;;;;;;3.50;79.91;99701.41;4957882;28;20132;-88
2022/12/04 03:44:33;;;;;;;29.75;11.65;;;;;;;3.51;79.32;99703.94;4958761;28;20125;-88
2022/12/04 03:47:20;;;;;;;25.40;11.40;;;;;;;3.39;79.52;99702.06;4944535;28;20058;-88
2022/12/04 03:49:53;;;;;;;26.92;11.98;;;;;;;3.48;79.71;99699.69;5004040;28;20128;-88
2022/12/04 03:52:35;;;;;;;28.20;10.63;;;;;;;3.44;79.63;99697.38;4949968;28;20042;-88
2022/12/04 03:55:14;;;;;;;25.42;11.23;;;;;;;3.48;79.40;99691.00;4982164;28;20046;-88
2022/12/04 03:57:43;;;;;;;26.80;11.35;;;;;;;3.45;79.71;99693.81;4938262;28;20052;-87
2022/12/04 04:00:13;;;;;;;24.45;10.73;;;;;;;3.43;80.34;99691.25;4956768;28;20069;-87
2022/12/04 04:03:02;;;;;;;23.98;9.63;;;;;;;3.36;80.37;99694.34;4957652;28;20489;-87
2022/12/04 04:05:30;;;;;;;24.63;10.52;;;;;;;3.36;80.35;99695.22;4941722;28;20069;-88
2022/12/04 04:10:48;;;;;;;26.27;10.55;;;;;;;3.34;80.11;99696.25;4945040;28;20546;-88
2022/12/04 04:24:45;;;;;;;26.33;10.82;;;;;;;3.38;80.05;99676.75;4986804;28;20047;-88
2022/12/04 04:27:12;;;;;;;29.75;11.43;;;;;;;3.38;80.52;99671.50;4989688;28;20098;-88
2022/12/04 04:29:40;;;;;;;23.13;9.82;;;;;;;3.42;80.71;99663.34;4950153;28;20050;-88
2022/12/04 04:32:16;;;;;;;24.83;10.77;;;;;;;3.47;80.73;99678.81;4950506;28;20047;-88
2022/12/04 04:34:51;;;;;;;23.08;10.02;;;;;;;3.53;80.89;99674.97;4983340;28;20043;-88
2022/12/04 04:37:26;;;;;;;24.98;9.80;;;;;;;3.56;80.76;99682.63;4934780;28;20053;-87
2022/12/04 04:40:05;;;;;;;24.02;10.85;;;;;;;3.56;80.77;99680.88;4951467;28;20046;-88
2022/12/04 04:42:39;;;;;;;19.00;9.20;;;;;;;3.59;80.45;99680.69;4958916;28;20450;-87
2022/12/04 04:45:07;;;;;;;;;;;;;;;3.55;80.68;99694.09;4984939;28;20560;-88
2022/12/04 04:47:44;;;;;;;25.02;9.68;;;;;;;3.60;80.60;99697.28;4973910;28;19922;-87
2022/12/04 04:50:13;;;;;;;21.85;9.80;;;;;;;3.65;80.44;99706.53;4964301;28;20047;-88
2022/12/04 04:52:44;;;;;;;24.33;10.05;;;;;;;3.63;81.05;99695.28;4970964;28;20045;-89
2022/12/04 04:55:12;;;;;;;22.35;9.43;;;;;;;3.68;80.18;99697.63;4942428;28;20042;-89
2022/12/04 04:57:39;;;;;;;23.55;9.20;;;;;;;3.67;80.10;99706.47;4973672;28;20382;-87
2022/12/04 05:00:19;;;;;;;21.90;9.60;;;;;;;3.66;80.02;99710.00;4956293;28;20042;-87
2022/12/04 05:02:47;;;;;;;22.70;9.68;;;;;;;3.71;80.34;99705.31;4978322;28;20394;-88
2022/12/04 05:05:16;;;;;;;24.35;10.30;;;;;;;3.71;80.72;99710.56;4969947;28;20077;-87
2022/12/04 05:07:42;;;;;;;22.90;10.43;;;;;;;3.74;80.78;99702.53;4940795;28;20393;-87
2022/12/04 05:10:09;;;;;;;19.33;9.48;;;;;;;3.75;80.89;99703.38;4988918;28;20082;-88
2022/12/04 05:12:36;;;;;;;21.80;9.95;;;;;;;3.77;80.63;99704.13;4971074;28;20043;-88
2022/12/04 05:15:04;;;;;;;20.20;10.23;;;;;;;3.74;81.04;99699.91;4959843;28;20043;-87
2022/12/04 05:17:30;;;;;;;24.23;10.00;;;;;;;3.76;80.73;99702.41;4957398;28;20968;-89
2022/12/04 05:19:57;;;;;;;23.88;10.15;;;;;;;3.78;80.78;99706.63;4939689;28;20054;-88
2022/12/04 05:22:30;;;;;;;25.95;10.57;;;;;;;3.74;80.63;99705.16;4959182;28;20038;-88
2022/12/04 05:24:57;;;;;;;24.43;10.67;;;;;;;3.70;80.54;99714.97;4939458;28;20046;-88
2022/12/04 05:27:25;;;;;;;25.85;10.70;;;;;;;3.67;80.68;99714.34;4955846;28;20996;-88
2022/12/04 05:29:53;;;;;;;21.75;9.77;;;;;;;3.69;80.39;99712.47;4966529;28;20058;-88
2022/12/04 05:32:22;;;;;;;20.48;9.40;;;;;;;3.65;80.21;99710.97;4960595;28;20044;-88
2022/12/04 05:34:52;;;;;;;19.55;9.02;;;;;;;3.65;80.33;99700.47;4959180;28;20048;-88
2022/12/04 05:37:19;;;;;;;21.58;9.25;;;;;;;3.63;80.51;99703.16;4965324;28;20043;-88
2022/12/04 05:39:46;;;;;;;21.95;9.00;;;;;;;3.69;80.80;99701.97;4953143;28;20569;-88
2022/12/04 05:42:13;;;;;;;22.67;9.35;;;;;;;3.72;80.75;99706.19;4960061;28;20058;-88
2022/12/04 05:44:40;;;;;;;21.00;8.85;;;;;;;3.77;80.38;99710.22;4971357;28;20406;-88
2022/12/04 05:47:07;;;;;;;17.40;8.52;;;;;;;3.73;80.23;99699.97;4951870;28;20121;-88
2022/12/04 05:49:34;;;;;;;20.45;9.13;;;;;;;3.72;80.26;99712.28;4947430;28;20042;-88
2022/12/04 05:52:02;;;;;;;21.38;9.10;;;;;;;3.71;80.45;99710.56;4978478;28;20088;-87
2022/12/04 05:54:29;;;;;;;18.98;8.13;;;;;;;3.74;80.33;99704.28;4965492;28;20038;-88
2022/12/04 05:56:56;;;;;;;19.30;8.65;;;;;;;3.76;80.36;99712.91;4963346;28;20481;-87
2022/12/04 05:59:22;;;;;;;17.50;8.43;;;;;;;3.72;80.36;99707.03;4974786;28;20049;-87
2022/12/04 06:01:49;;;;;;;18.52;8.73;;;;;;;3.69;80.14;99702.81;4973486;28;20046;-87
2022/12/04 06:04:16;;;;;;;18.25;7.97;;;;;;;3.72;80.45;99704.41;4949620;28;20051;-88
2022/12/04 06:06:43;;;;;;;21.45;9.38;;;;;;;3.73;80.34;99695.56;4969587;28;20042;-88
2022/12/04 06:09:10;;;;;;;17.42;8.55;;;;;;;3.72;80.48;99699.16;4954444;28;20458;-89
2022/12/04 06:11:38;;;;;;;20.83;9.45;;;;;;;3.73;80.49;99705.22;4959771;28;20046;-87
2022/12/04 06:14:07;;;;;;;19.23;9.27;;;;;;;3.70;80.71;99688.72;4954123;28;20050;-87
2022/12/04 06:16:37;;;;;;;20.73;8.80;;;;;;;3.67;80.54;99704.69;4983178;28;20457;-88
2022/12/04 06:19:07;;;;;;;23.60;9.82;;;;;;;3.72;80.40;99691.25;4933959;28;20418;-87
2022/12/04 06:21:35;;;;;;;19.52;8.60;;;;;;;3.69;80.11;99688.84;4972191;28;20056;-88
2022/12/04 06:24:03;;;;;;;16.90;8.05;;;;;;;3.69;80.35;99687.06;4957937;28;20057;-87
2022/12/04 06:26:30;;;;;;;21.42;9.70;;;;;;;3.67;80.62;99694.16;4999307;28;20064;-88
2022/12/04 06:28:57;;;;;;;16.77;7.85;;;;;;;3.70;80.68;99698.38;4954116;28;20042;-87
2022/12/04 06:31:26;;;;;;;19.13;9.15;;;;;;;3.67;80.57;99694.16;4943303;28;20045;-88
2022/12/04 06:33:54;;;;;;;20.25;9.05;;;;;;;3.70;80.46;99696.59;4984074;28;20121;-87
2022/12/04 06:36:22;;;;;;;21.60;8.88;;;;;;;3.69;80.28;99696.72;4951669;28;20394;-88
2022/12/04 06:38:49;;;;;;;19.63;8.90;;;;;;;3.71;80.94;99700.06;4970403;28;20133;-87
2022/12/04 06:41:19;;;;;;;17.85;7.72;;;;;;;3.73;81.03;99692.94;4967263;28;20042;-88
2022/12/04 06:43:47;;;;;;;19.55;8.48;;;;;;;3.73;81.24;99700.81;4985173;28;20069;-88
2022/12/04 06:46:19;;;;;;;18.10;8.43;;;;;;;3.76;80.97;99698.00;4978938;28;20057;-88
2022/12/04 06:48:46;;;;;;;21.90;8.63;;;;;;;3.80;81.24;99699.50;4971886;28;20061;-88
2022/12/04 06:51:16;;;;;;;22.10;9.45;;;;;;;3.79;81.00;99697.84;4937123;28;20094;-87
2022/12/04 06:53:43;;;;;;;19.33;8.65;;;;;;;3.79;80.70;99689.94;4941607;28;20055;-88
2022/12/04 06:56:15;;;;;;;18.25;8.52;;;;;;;3.79;80.56;99691.72;4949350;28;20472;-87
2022/12/04 06:58:41;;;;;;;20.13;9.10;;;;;;;3.78;80.70;99695.28;4969194;28;20042;-87
2022/12/04 07:01:10;;;;;;;18.73;7.78;;;;;;;3.82;80.95;99687.13;4956782;28;20051;-88
2022/12/04 07:03:37;;;;;;;20.80;8.15;;;;;;;3.83;81.02;99680.09;4943428;28;20064;-88
2022/12/04 07:06:13;;;;;;;18.30;8.38;;;;;;;3.82;81.17;99688.91;4951088;28;20061;-88
2022/12/04 07:08:40;;;;;;;19.02;8.95;;;;;;;3.85;81.02;99691.34;4967120;28;20062;-88
2022/12/04 07:11:07;;;;;;;18.65;9.55;;;;;;;3.79;81.27;99691.72;4970693;28;20129;-88
2022/12/04 07:13:34;;;;;;;19.90;8.57;;;;;;;3.79;81.12;99699.59;4960330;28;20046;-88
2022/12/04 07:16:03;;;;;;;20.73;8.82;;;;;;;3.76;80.79;99691.91;4950761;28;20050;-88
2022/12/04 07:18:31;;;;;;;19.58;8.70;;;;;;;3.77;81.46;99697.06;4954614;28;20046;-89
2022/12/04 07:20:58;;;;;;;22.38;9.23;;;;;;;3.79;81.69;99699.59;4954935;28;20054;-88
2022/12/04 07:23:25;;;;;;;19.90;8.68;;;;;;;3.77;81.48;99701.50;4963797;28;20047;-88
2022/12/04 07:25:52;;;;;;;19.38;8.73;;;;;;;3.75;81.55;99704.19;4977679;28;20042;-88
2022/12/04 07:28:18;;;;;;;18.38;8.13;;;;;;;3.75;81.59;99704.19;4960626;28;20046;-88
2022/12/04 07:30:45;;;;;;;18.83;8.90;;;;;;;3.77;81.67;99714.63;4971436;28;20192;-88
2022/12/04 07:33:12;;;;;;;20.85;7.97;;;;;;;3.81;81.87;99710.84;4975674;28;20054;-87
2022/12/04 07:35:42;;;;;;;20.33;9.00;;;;;;;3.80;81.38;99711.81;4984017;28;20050;-88
2022/12/04 07:38:08;;;;;;;21.23;9.60;;;;;;;3.82;81.80;99708.13;4941427;28;21291;-87
2022/12/04 07:40:38;;;;;;;19.42;8.80;;;;;;;3.87;81.69;99699.97;4959893;28;20134;-88
2022/12/04 07:43:05;;;;;;;19.38;8.48;;;;;;;3.89;81.79;99706.81;4965704;28;20050;-88
2022/12/04 07:45:32;;;;;;;18.15;8.23;;;;;;;3.87;81.55;99706.06;4956047;28;20061;-89
2022/12/04 07:47:58;;;;;;;20.90;9.10;;;;;;;3.89;81.55;99693.69;4955250;28;20410;-88
2022/12/04 07:50:25;;;;;;;19.15;8.52;;;;;;;3.88;81.43;99688.50;4953050;28;20104;-88
2022/12/04 07:52:52;;;;;;;24.20;10.43;;;;;;;3.84;81.69;99703.63;4970002;28;20122;-87
2022/12/04 07:55:21;;;;;;;25.70;9.65;;;;;;;3.81;81.67;99703.81;4934936;28;20037;-87
2022/12/04 07:57:56;;;;;;;26.95;11.38;;;;;;;3.79;81.62;99697.84;4870772;28;20048;-90
2022/12/04 08:00:32;;;;;;;19.92;9.65;;;;;;;3.81;81.86;99706.44;4815023;29;20046;-85
2022/12/04 08:02:59;;;;;;;21.20;8.88;;;;;;;3.87;82.09;99707.84;4830560;29;20077;-85
2022/12/04 08:05:26;;;;;;;21.83;9.00;;;;;;;3.91;81.90;99698.81;4817633;29;20050;-86
2022/12/04 08:07:53;;;;;;;19.42;8.35;;;;;;;3.91;81.81;99688.31;4857161;29;21472;-86
2022/12/04 08:10:20;;;;;;;20.45;8.98;;;;;;;3.94;81.76;99689.91;4855436;29;20137;-86
2022/12/04 08:12:46;;;;;;;21.75;9.25;;;;;;;3.92;82.19;99687.38;4818010;29;20066;-86
2022/12/04 08:15:13;;;;;;;20.70;9.20;;;;;;;3.91;81.88;99690.94;4853783;29;20154;-86
2022/12/04 08:17:40;;;;;;;21.80;9.50;;;;;;;3.85;82.11;99692.19;4805349;29;20056;-87
2022/12/04 08:20:07;;;;;;;28.63;10.23;;;;;;;3.85;82.14;99694.81;4833567;29;20046;-87
2022/12/04 08:22:33;;;;;;;23.85;10.05;;;;;;;3.88;81.90;99688.50;4851462;29;20065;-87
2022/12/04 08:25:00;;;;;;;21.23;9.30;;;;;;;3.88;82.08;99697.22;4848087;29;20049;-86
2022/12/04 08:27:27;;;;;;;23.98;9.75;;;;;;;3.91;82.38;99686.53;4862028;29;20428;-86
2022/12/04 08:29:54;;;;;;;21.88;9.00;;;;;;;3.94;82.41;99690.75;4886919;29;20047;-85
2022/12/04 08:32:21;;;;;;;24.70;9.75;;;;;;;3.97;82.09;99693.19;4948931;28;20043;-86
2022/12/04 08:34:49;;;;;;;21.42;9.32;;;;;;;3.95;82.13;99691.59;4958301;28;20046;-87
2022/12/04 08:37:26;;;;;;;24.30;9.20;;;;;;;3.91;82.63;99689.16;4967706;28;20058;-86
2022/12/04 08:39:54;;;;;;;19.33;8.90;;;;;;;3.92;82.49;99685.59;4962012;28;20500;-85
2022/12/04 08:42:24;;;;;;;20.23;9.20;;;;;;;3.95;82.42;99691.59;4979700;28;20097;-85
2022/12/04 08:44:50;;;;;;;17.25;8.50;;;;;;;3.94;82.47;99692.53;4995056;28;20475;-85
2022/12/04 08:47:17;;;;;;;19.63;8.60;;;;;;;3.93;82.49;99691.69;4982775;28;20039;-86
2022/12/04 08:49:44;;;;;;;18.92;8.27;;;;;;;3.98;82.55;99694.88;4970301;28;20050;-85
2022/12/04 08:52:11;;;;;;;25.02;9.55;;;;;;;4.00;82.52;99679.88;4972309;28;20122;-86
2022/12/04 08:54:37;;;;;;;19.77;9.68;;;;;;;3.98;82.53;99684.38;4942628;28;20118;-85
2022/12/04 08:57:04;;;;;;;20.65;9.30;;;;;;;4.00;82.95;99692.16;4966675;28;20047;-85
2022/12/04 08:59:31;;;;;;;19.33;9.32;;;;;;;3.99;82.71;99679.94;4951304;28;20047;-87
2022/12/04 09:01:58;;;;;;;20.92;9.30;;;;;;;4.03;82.74;99692.78;4949592;28;20076;-87
2022/12/04 09:04:25;;;;;;;23.55;8.30;;;;;;;4.06;82.56;99691.75;4955692;28;20499;-87
2022/12/04 09:06:53;;;;;;;17.25;9.18;;;;;;;4.05;82.48;99697.97;4944619;28;20367;-87
2022/12/04 09:09:20;;;;;;;19.08;8.48;;;;;;;4.08;82.27;99697.75;4959863;28;20074;-88
2022/12/04 09:11:47;;;;;;;20.73;8.20;;;;;;;4.07;82.32;99699.56;4986700;28;20042;-89
2022/12/04 09:14:14;;;;;;;20.63;8.90;;;;;;;4.07;82.23;99691.66;4952839;28;20057;-89
2022/12/04 09:16:40;;;;;;;16.83;7.95;;;;;;;4.12;82.46;99699.22;4952635;28;20047;-86
2022/12/04 09:19:07;;;;;;;20.27;8.40;;;;;;;4.12;82.44;99702.72;4989016;28;20042;-87
2022/12/04 09:21:35;;;;;;;22.30;8.60;;;;;;;4.14;82.35;99705.25;4981362;28;20075;-87
2022/12/04 09:24:02;;;;;;;15.80;7.60;;;;;;;4.17;82.44;99710.28;4972703;28;20046;-86
2022/12/04 09:26:30;;;;;;;18.67;8.15;;;;;;;4.20;82.44;99704.00;4956373;28;20461;-85
2022/12/04 09:28:59;;;;;;;20.15;8.75;;;;;;;4.20;82.46;99709.25;4975111;28;20046;-85
2022/12/04 09:31:26;;;;;;;22.02;9.68;;;;;;;4.20;82.74;99702.25;4971189;28;20043;-86
2022/12/04 09:33:53;;;;;;;22.27;9.38;;;;;;;4.13;82.67;99711.44;4957594;28;20047;-85
2022/12/04 09:36:20;;;;;;;23.80;8.93;;;;;;;4.13;83.08;99720.16;4954073;28;20043;-85
2022/12/04 09:38:49;;;;;;;22.65;10.38;;;;;;;4.12;83.50;99723.75;4977893;28;20047;-85
2022/12/04 09:41:34;;;;;;;25.90;11.50;;;;;;;4.05;84.34;99719.81;4937960;28;20038;-85
2022/12/04 09:44:19;;;;;;;23.40;10.73;;;;;;;4.00;84.34;99718.44;4984203;28;20449;-86
2022/12/04 09:46:50;;;;;;;20.60;9.85;;;;;;;4.07;84.17;99730.22;4985578;28;20061;-86
2022/12/04 09:49:25;;;;;;;24.55;11.32;;;;;;;4.07;84.39;99711.81;4956509;28;20046;-85
2022/12/04 09:51:54;;;;;;;26.08;10.80;;;;;;;4.08;84.40;99703.03;4980433;28;20408;-87
2022/12/04 09:54:25;;;;;;;25.38;10.20;;;;;;;4.04;84.63;99704.97;4970951;28;20042;-86
2022/12/04 09:57:03;;;;;;;26.30;11.23;;;;;;;4.06;84.67;99710.16;4987914;28;20046;-86
2022/12/04 09:59:30;;;;;;;26.23;10.65;;;;;;;4.06;84.63;99691.75;4932318;28;20050;-86
2022/12/04 10:02:02;;;;;;;29.27;11.10;;;;;;;4.05;84.67;99693.53;4949297;28;20049;-86
2022/12/04 10:04:29;;;;;;;24.20;10.95;;;;;;;4.05;84.60;99692.72;4986873;28;20058;-87
2022/12/04 10:07:21;;;;;;;28.20;11.27;;;;;;;3.98;86.35;99683.53;4973748;28;20457;-85
2022/12/04 10:09:57;;;;;;;25.50;11.60;;;;;;;3.98;85.46;99663.34;4963640;28;20057;-85
2022/12/04 10:12:49;;;;;;;29.58;10.70;;;;;;;3.97;86.15;99658.19;4963906;28;20041;-85
2022/12/04 10:15:42;;;;;;;32.83;11.55;;;;;;;3.98;85.97;99657.25;4989012;28;20062;-85
2022/12/04 10:18:31;;;;;;;26.27;10.85;;;;;;;3.91;87.30;99662.03;4950880;28;20043;-85
2022/12/04 10:21:12;;;;;;;30.63;11.73;;;;;;;3.96;86.88;99649.47;4966742;28;20481;-85
2022/12/04 10:24:19;;;;;;;27.67;10.20;;;;;;;3.94;87.00;99637.38;4973561;28;20141;-85
2022/12/04 10:26:47;;;;;;;30.80;11.13;;;;;;;3.99;86.52;99640.53;4893802;28;20150;-86
2022/12/04 10:29:31;;;;;;;27.13;12.15;;;;;;;3.98;86.80;99629.19;4969119;28;20046;-85
2022/12/04 10:32:13;;;;;;;23.95;10.20;;;;;;;3.98;86.62;99623.09;4970302;28;20387;-85
2022/12/04 10:34:40;;;;;;;26.98;11.18;;;;;;;4.02;86.24;99622.81;4907771;28;20125;-85
2022/12/04 10:37:13;;;;;;;24.58;10.65;;;;;;;4.03;86.59;99634.16;4935443;28;20050;-86
2022/12/04 10:39:53;;;;;;;25.92;10.05;;;;;;;3.96;87.24;99632.88;4931897;28;20057;-85
2022/12/04 10:42:30;;;;;;;24.77;9.80;;;;;;;3.97;87.32;99629.28;4906193;28;20055;-86
2022/12/04 10:44:57;;;;;;;25.50;10.10;;;;;;;3.96;87.25;99624.97;4931447;28;20146;-86
2022/12/04 10:47:24;;;;;;;24.92;10.93;;;;;;;3.95;88.00;99623.31;4936531;28;20050;-87
2022/12/04 10:50:04;;;;;;;28.25;11.35;;;;;;;3.91;88.27;99615.59;4920799;28;20051;-86
2022/12/04 10:52:31;;;;;;;25.20;11.70;;;;;;;3.92;88.87;99612.06;4937188;28;20062;-86
2022/12/04 10:54:59;;;;;;;27.02;11.48;;;;;;;3.90;88.65;99610.47;4912881;28;20059;-87
2022/12/04 10:57:44;;;;;;;23.65;9.90;;;;;;;3.91;89.30;99612.13;4951000;28;20058;-86
2022/12/04 11:00:33;;;;;;;23.27;9.77;;;;;;;3.86;89.84;99604.53;4927491;28;20129;-87
2022/12/04 11:03:07;;;;;;;24.08;10.10;;;;;;;3.91;89.04;99601.63;4902592;28;20051;-86
2022/12/04 11:05:38;;;;;;;23.85;11.27;;;;;;;3.93;88.80;99607.63;4950116;28;20152;-83
2022/12/04 11:08:06;;;;;;;22.70;10.20;;;;;;;3.88;89.22;99612.34;4949105;28;20494;-85
2022/12/04 11:10:36;;;;;;;30.40;10.93;;;;;;;3.92;88.08;99605.97;4964255;28;20043;-86
2022/12/04 11:13:09;;;;;;;20.65;10.18;;;;;;;3.93;88.33;99620.75;4964094;28;20506;-86
2022/12/04 11:15:44;;;;;;;22.05;9.73;;;;;;;3.94;88.89;99618.97;4942590;28;20054;-86
2022/12/04 11:18:17;;;;;;;23.05;10.70;;;;;;;3.96;88.61;99617.94;4988935;28;20038;-86
2022/12/04 11:20:53;;;;;;;24.60;10.52;;;;;;;3.94;89.64;99611.94;4986480;28;20084;-86
2022/12/04 11:23:20;;;;;;;23.77;10.23;;;;;;;4.06;88.20;99615.56;4968593;28;20050;-86
2022/12/04 11:25:51;;;;;;;27.17;11.40;;;;;;;4.04;87.89;99612.19;4960701;28;20046;-83
2022/12/04 11:28:20;;;;;;;28.80;12.52;;;;;;;4.03;88.53;99619.22;4955557;28;20070;-86
2022/12/04 11:31:07;;;;;;;32.92;12.75;;;;;;;4.02;88.40;99619.31;4936191;28;20047;-86
2022/12/04 11:33:35;;;;;;;28.63;12.10;;;;;;;4.03;88.71;99627.13;4986747;28;20038;-86
2022/12/04 11:36:06;;;;;;;32.80;12.63;;;;;;;4.00;88.40;99629.94;4969658;28;20078;-88
2022/12/04 11:38:34;;;;;;;29.80;12.15;;;;;;;4.02;88.70;99625.44;4981439;28;20045;-86
2022/12/04 11:41:02;;;;;;;34.85;12.75;;;;;;;4.01;88.86;99621.09;4985198;28;20049;-87
2022/12/04 11:43:31;;;;;;;30.05;12.25;;;;;;;4.08;88.49;99622.41;4964839;28;20050;-86
2022/12/04 11:46:03;;;;;;;45.10;13.25;;;;;;;4.09;88.31;99620.59;4954090;28;20065;-87
2022/12/04 11:48:31;;;;;;;31.17;11.27;;;;;;;4.08;88.70;99622.41;4982440;28;20086;-86
2022/12/04 11:51:16;;;;;;;26.95;10.60;;;;;;;4.06;89.11;99618.19;4968302;28;20528;-87
2022/12/04 11:53:54;;;;;;;25.38;11.40;;;;;;;4.05;89.57;99619.13;4992483;28;20046;-86
2022/12/04 11:56:25;;;;;;;28.52;11.13;;;;;;;4.06;88.81;99615.56;4959517;28;20053;-86
2022/12/04 11:58:52;;;;;;;28.85;11.25;;;;;;;4.06;88.58;99611.13;4986556;28;20129;-86
2022/12/04 12:01:22;;;;;;;29.25;11.98;;;;;;;4.07;88.78;99620.72;5002756;28;20549;-87